Time;durP1;ratioP1;P1;durP2;ratioP2;P2;SDS_P1;SDS_P2;PMS_P1;PMS_P2;Temp;Humidity;BMP_temperature;BMP_pressure;BME280_temperature;BME280_humidity;BME280_pressure;Samples;Min_cycle;Max_cycle;Signal;HPM_P1;HPM_P2
2022/07/18 00:00:42;;;;;;;3.35;1.60;;;;;;;16.25;72.80;93864.78;5133654;27;20088;-77
2022/07/18 00:03:09;;;;;;;2.63;1.65;;;;;;;15.93;73.02;93870.38;5133637;27;20103;-77
2022/07/18 00:05:37;;;;;;;2.45;1.42;;;;;;;15.80;70.00;93862.78;5133796;27;20047;-78
2022/07/18 00:08:04;;;;;;;5.13;2.05;;;;;;;15.67;75.67;93871.56;5133217;27;20100;-77
2022/07/18 00:10:31;;;;;;;2.78;1.58;;;;;;;15.50;74.67;93846.31;5133245;27;20418;-78
2022/07/18 00:12:58;;;;;;;4.15;1.60;;;;;;;15.71;78.03;93865.72;5133458;27;20100;-77
2022/07/18 00:15:25;;;;;;;4.90;1.90;;;;;;;15.77;78.09;93874.38;5133170;27;20559;-77
2022/07/18 00:17:52;;;;;;;4.75;1.95;;;;;;;15.83;78.61;93870.88;5133027;27;20063;-77
2022/07/18 00:20:18;;;;;;;3.10;2.60;;;;;;;15.79;78.11;93851.66;5133032;27;20043;-77
2022/07/18 00:22:46;;;;;;;4.70;2.55;;;;;;;15.70;78.09;93834.88;5133062;27;20116;-77
2022/07/18 00:25:13;;;;;;;4.40;2.25;;;;;;;15.88;78.90;93865.03;5133138;27;20084;-77
2022/07/18 00:27:40;;;;;;;4.53;2.95;;;;;;;15.74;79.60;93846.34;5132738;27;20084;-77
2022/07/18 00:30:08;;;;;;;4.30;2.50;;;;;;;15.73;80.17;93853.31;5133013;27;20043;-77
2022/07/18 00:32:35;;;;;;;3.88;2.40;;;;;;;15.56;80.42;93840.25;5132953;27;20046;-77
2022/07/18 00:35:02;;;;;;;6.13;2.90;;;;;;;15.50;81.54;93854.91;5132982;27;20047;-77
2022/07/18 00:37:28;;;;;;;5.35;2.50;;;;;;;15.38;82.07;93851.50;5132848;27;20107;-77
2022/07/18 00:39:56;;;;;;;4.88;2.83;;;;;;;15.33;81.64;93854.75;5132604;27;20051;-77
2022/07/18 00:42:23;;;;;;;4.20;2.70;;;;;;;15.33;81.88;93856.56;5132700;27;20062;-77
2022/07/18 00:44:53;;;;;;;3.83;2.55;;;;;;;15.22;81.04;93852.94;5133056;27;20047;-77
2022/07/18 00:47:20;;;;;;;2.92;2.08;;;;;;;15.17;81.27;93856.19;5132921;27;20100;-77
2022/07/18 00:49:47;;;;;;;3.58;2.13;;;;;;;15.14;81.48;93854.03;5132451;27;20043;-77
2022/07/18 00:52:14;;;;;;;5.05;2.67;;;;;;;15.20;83.51;93862.72;5132763;27;20046;-77
2022/07/18 00:54:41;;;;;;;4.18;2.67;;;;;;;15.16;83.86;93861.59;5132423;27;20388;-78
2022/07/18 00:57:09;;;;;;;3.95;2.40;;;;;;;15.16;83.66;93859.00;5132468;27;20035;-79
2022/07/18 01:02:18;;;;;;;3.22;1.90;;;;;;;15.03;82.54;93860.78;5084993;27;20078;-78
2022/07/18 01:04:44;;;;;;;3.47;2.50;;;;;;;14.94;82.44;93857.72;5132509;27;20104;-81
2022/07/18 01:07:11;;;;;;;3.10;2.50;;;;;;;14.94;83.48;93867.25;5132426;27;20395;-80
2022/07/18 01:09:39;;;;;;;3.45;2.38;;;;;;;14.85;83.64;93861.63;5132182;27;20040;-79
2022/07/18 01:12:07;;;;;;;3.95;2.03;;;;;;;14.82;83.62;93851.72;5132232;27;20069;-78
2022/07/18 01:14:36;;;;;;;3.47;2.05;;;;;;;14.92;83.61;93859.75;5132040;27;20043;-78
2022/07/18 01:17:04;;;;;;;3.30;2.10;;;;;;;14.92;83.01;93862.34;5132267;27;20099;-78
2022/07/18 01:19:31;;;;;;;3.38;2.15;;;;;;;14.87;83.00;93867.38;5132237;27;20066;-78
2022/07/18 01:21:59;;;;;;;4.05;2.33;;;;;;;14.80;82.44;93864.06;5131849;27;20521;-79
2022/07/18 01:24:26;;;;;;;4.03;2.40;;;;;;;14.71;83.10;93860.97;5132149;27;20468;-79
2022/07/18 01:26:52;;;;;;;3.42;2.10;;;;;;;14.65;85.43;93859.25;5132130;27;20100;-78
2022/07/18 01:29:19;;;;;;;3.95;2.28;;;;;;;14.53;84.52;93856.63;5131931;27;20047;-78
2022/07/18 01:31:46;;;;;;;4.03;2.85;;;;;;;14.51;85.40;93856.84;5131837;27;20502;-77
2022/07/18 01:34:12;;;;;;;3.22;2.28;;;;;;;14.48;85.64;93869.44;5131770;27;20091;-77
2022/07/18 01:36:39;;;;;;;3.55;2.13;;;;;;;14.44;85.50;93866.47;5131687;27;20039;-77
2022/07/18 01:39:07;;;;;;;5.18;2.63;;;;;;;14.30;85.85;93847.75;5131710;27;20043;-77
2022/07/18 01:41:34;;;;;;;3.38;2.28;;;;;;;14.08;87.42;93855.16;5131687;27;20043;-77
2022/07/18 01:44:02;;;;;;;4.10;2.50;;;;;;;13.82;88.83;93857.78;5131755;27;20047;-77
2022/07/18 01:46:29;;;;;;;4.00;2.90;;;;;;;13.97;89.70;93854.84;5131384;27;20494;-77
2022/07/18 01:48:56;;;;;;;5.25;2.75;;;;;;;14.14;90.35;93849.94;5131460;27;20570;-78
2022/07/18 01:51:23;;;;;;;3.58;2.22;;;;;;;14.17;89.29;93851.28;5131452;27;20559;-78
2022/07/18 01:53:58;;;;;;;3.38;2.05;;;;;;;14.11;88.63;93846.97;5131398;27;20548;-77
2022/07/18 01:56:26;;;;;;;3.75;2.45;;;;;;;13.83;87.02;93835.31;5131447;27;20046;-78
2022/07/18 01:58:52;;;;;;;7.60;2.28;;;;;;;13.91;90.70;93840.22;5131782;27;20039;-78
2022/07/18 02:01:19;;;;;;;4.80;2.72;;;;;;;14.01;91.48;93840.53;5131253;27;20092;-78
2022/07/18 02:03:46;;;;;;;3.67;2.15;;;;;;;14.05;89.97;93845.25;5131402;27;20039;-78
2022/07/18 02:06:12;;;;;;;8.15;2.55;;;;;;;14.03;89.09;93843.66;5131271;27;20171;-78
2022/07/18 02:08:39;;;;;;;4.53;2.42;;;;;;;14.08;88.29;93853.38;5131459;27;20043;-78
2022/07/18 02:11:06;;;;;;;3.78;2.53;;;;;;;14.05;87.40;93853.78;5130893;27;20563;-78
2022/07/18 02:13:35;;;;;;;3.28;2.45;;;;;;;14.08;88.35;93850.00;5130279;27;20550;-78
2022/07/18 02:16:01;;;;;;;3.70;2.85;;;;;;;14.01;88.19;93848.28;5131225;27;20047;-78
2022/07/18 02:18:31;;;;;;;5.07;2.47;;;;;;;13.93;88.12;93856.28;5131136;27;20035;-78
2022/07/18 02:20:58;;;;;;;4.03;2.42;;;;;;;13.64;87.65;93824.97;5130986;27;20067;-78
2022/07/18 02:23:25;;;;;;;3.70;2.67;;;;;;;13.69;88.28;93852.72;5131152;27;20087;-81
2022/07/18 02:25:52;;;;;;;7.03;2.75;;;;;;;13.74;88.83;93860.63;5130688;27;20520;-82
2022/07/18 02:28:19;;;;;;;4.63;2.80;;;;;;;13.72;88.99;93860.88;5130577;27;20615;-82
2022/07/18 02:30:48;;;;;;;4.38;2.50;;;;;;;13.71;88.54;93854.09;5130491;27;20444;-82
2022/07/18 02:33:14;;;;;;;4.53;2.40;;;;;;;13.62;88.18;93858.75;5130431;27;20043;-82
2022/07/18 02:35:41;;;;;;;6.22;3.05;;;;;;;13.53;88.98;93854.06;5130471;27;20739;-81
2022/07/18 02:38:09;;;;;;;3.90;2.47;;;;;;;13.56;88.24;93875.09;5130753;27;20100;-83
2022/07/18 02:40:36;;;;;;;4.38;2.50;;;;;;;13.49;87.44;93875.16;5130655;27;20043;-81
2022/07/18 02:43:04;;;;;;;4.07;2.47;;;;;;;13.30;87.40;93858.00;5130805;27;20135;-83
2022/07/18 02:45:31;;;;;;;5.28;3.08;;;;;;;13.36;89.69;93865.69;5130876;27;20100;-82
2022/07/18 02:48:00;;;;;;;4.88;2.83;;;;;;;13.43;88.53;93873.38;5130596;27;20042;-82
2022/07/18 02:50:26;;;;;;;3.83;2.35;;;;;;;13.46;87.37;93874.75;5130375;27;20084;-82
2022/07/18 02:52:53;;;;;;;6.15;3.13;;;;;;;13.26;87.37;93843.94;5130232;27;20100;-82
2022/07/18 02:55:20;;;;;;;6.38;2.60;;;;;;;13.32;86.44;93868.88;5130478;27;20047;-81
2022/07/18 02:57:47;;;;;;;5.43;2.13;;;;;;;13.27;86.90;93879.03;5130301;27;20075;-82
2022/07/18 03:00:15;;;;;;;5.20;2.60;;;;;;;13.34;85.89;93895.28;5130421;27;20467;-82
2022/07/18 03:02:42;;;;;;;4.25;2.13;;;;;;;13.23;86.06;93889.81;5130483;27;20035;-81
2022/07/18 03:05:10;;;;;;;5.53;2.15;;;;;;;13.19;85.73;93891.22;5130517;27;20161;-81
2022/07/18 03:07:37;;;;;;;5.68;2.30;;;;;;;13.18;85.89;93881.09;5130425;27;20046;-77
2022/07/18 03:10:05;;;;;;;4.10;2.45;;;;;;;13.08;84.56;93886.72;5130185;27;20119;-77
2022/07/18 03:12:32;;;;;;;4.90;2.63;;;;;;;12.89;86.16;93867.78;5130316;27;20059;-76
2022/07/18 03:14:59;;;;;;;5.03;2.47;;;;;;;12.90;86.82;93872.75;5130358;27;20035;-76
2022/07/18 03:17:26;;;;;;;3.05;2.17;;;;;;;13.00;86.23;93892.13;5129873;27;20077;-76
2022/07/18 03:19:52;;;;;;;3.90;2.58;;;;;;;12.98;86.62;93891.53;5129707;27;20084;-76
2022/07/18 03:22:20;;;;;;;3.80;2.55;;;;;;;12.92;85.73;93890.59;5129679;27;20047;-78
2022/07/18 03:24:47;;;;;;;4.68;2.22;;;;;;;12.92;85.01;93898.31;5129894;27;20043;-77
2022/07/18 03:27:14;;;;;;;4.55;2.10;;;;;;;12.92;85.49;93890.59;5129953;27;20039;-77
2022/07/18 03:29:40;;;;;;;3.42;1.90;;;;;;;12.79;85.00;93888.88;5129834;27;20059;-77
2022/07/18 03:32:07;;;;;;;5.10;2.10;;;;;;;12.57;86.07;93876.28;5129708;28;20544;-80
2022/07/18 03:34:34;;;;;;;7.10;2.83;;;;;;;12.67;85.98;93904.19;5127339;28;20126;-78
2022/07/18 03:37:01;;;;;;;3.92;1.77;;;;;;;12.52;85.98;93904.44;5129914;27;20535;-78
2022/07/18 03:39:29;;;;;;;3.80;1.80;;;;;;;12.55;87.83;93894.50;5129915;28;20047;-78
2022/07/18 03:41:56;;;;;;;5.13;2.30;;;;;;;12.51;86.84;93906.22;5130252;28;20047;-79
2022/07/18 03:44:22;;;;;;;5.82;2.65;;;;;;;12.46;87.88;93888.03;5129839;28;20100;-78
2022/07/18 03:46:51;;;;;;;7.97;3.20;;;;;;;12.36;87.70;93872.22;5129558;28;20054;-78
2022/07/18 03:49:18;;;;;;;7.85;3.25;;;;;;;12.59;86.88;93899.28;5130047;28;20035;-78
2022/07/18 03:51:45;;;;;;;6.68;2.60;;;;;;;12.52;86.11;93894.13;5129588;28;20044;-78
2022/07/18 03:54:11;;;;;;;6.13;2.30;;;;;;;12.66;86.03;93906.00;5129981;28;20092;-78
2022/07/18 03:56:40;;;;;;;5.97;2.95;;;;;;;12.74;86.83;93904.97;5129874;28;20042;-78
2022/07/18 03:59:07;;;;;;;5.38;2.80;;;;;;;12.73;86.15;93900.00;5129797;28;20043;-78
2022/07/18 04:01:34;;;;;;;4.90;2.38;;;;;;;12.79;84.64;93912.06;5129630;28;20049;-78
2022/07/18 04:04:00;;;;;;;2.90;1.90;;;;;;;12.74;83.89;93911.91;5129342;28;20047;-77
2022/07/18 04:06:27;;;;;;;3.90;2.47;;;;;;;12.70;84.56;93908.94;5130019;28;20035;-77
2022/07/18 04:08:54;;;;;;;5.72;2.28;;;;;;;12.79;86.44;93894.03;5129621;28;20047;-78
2022/07/18 04:11:23;;;;;;;6.82;2.47;;;;;;;12.80;86.01;93890.44;5129728;28;20088;-77
2022/07/18 04:13:52;;;;;;;6.18;2.47;;;;;;;12.81;85.84;93902.34;5129667;28;20047;-77
2022/07/18 04:16:19;;;;;;;6.80;2.30;;;;;;;12.86;86.50;93899.94;5129926;28;20460;-78
2022/07/18 04:18:46;;;;;;;6.78;2.70;;;;;;;12.99;85.96;93901.66;5129438;28;20093;-78
2022/07/18 04:21:13;;;;;;;4.28;2.35;;;;;;;13.06;85.11;93901.63;5129634;28;20039;-79
2022/07/18 04:23:40;;;;;;;7.82;2.50;;;;;;;13.06;84.20;93897.25;5129110;28;20562;-78
2022/07/18 04:26:07;;;;;;;9.52;2.50;;;;;;;12.94;85.26;93868.75;5129489;28;20093;-79
2022/07/18 04:28:33;;;;;;;7.38;2.95;;;;;;;13.11;84.29;93881.16;5129648;28;20089;-78
2022/07/18 04:31:02;;;;;;;8.55;2.75;;;;;;;13.15;84.38;93889.25;5129457;28;20092;-78
2022/07/18 04:33:28;;;;;;;6.03;2.85;;;;;;;13.22;84.18;93895.97;5129390;28;20516;-78
2022/07/18 04:35:55;;;;;;;7.03;4.15;;;;;;;13.28;85.35;93894.31;5129855;27;20486;-77
2022/07/18 04:38:22;;;;;;;9.48;3.40;;;;;;;13.33;85.44;93886.75;5133441;27;20035;-77
2022/07/18 04:40:49;;;;;;;6.43;3.28;;;;;;;13.38;85.28;93880.94;5133354;27;20087;-77
2022/07/18 04:43:15;;;;;;;6.22;3.60;;;;;;;13.44;84.84;93892.22;5133171;27;20444;-76
2022/07/18 04:45:42;;;;;;;6.35;3.42;;;;;;;13.46;85.52;93885.91;5132621;27;20036;-76
2022/07/18 04:48:10;;;;;;;8.07;4.00;;;;;;;13.51;84.55;93881.91;5133127;27;20047;-76
2022/07/18 04:50:37;;;;;;;8.80;3.60;;;;;;;13.59;84.67;93879.03;5132974;27;20039;-77
2022/07/18 04:53:04;;;;;;;9.40;4.40;;;;;;;13.68;84.57;93877.78;5133372;27;20502;-77
2022/07/18 04:55:30;;;;;;;12.75;4.63;;;;;;;13.72;85.26;93878.94;5133205;27;20112;-76
2022/07/18 04:57:57;;;;;;;7.65;3.70;;;;;;;13.76;84.20;93881.88;5132985;27;20051;-76
2022/07/18 05:00:25;;;;;;;8.80;4.05;;;;;;;13.76;83.80;93887.06;5132598;27;20043;-76
2022/07/18 05:02:56;;;;;;;6.97;3.90;;;;;;;13.80;82.86;93867.53;5132858;27;20395;-76
2022/07/18 05:05:26;;;;;;;7.55;4.03;;;;;;;13.97;83.20;93874.72;5132918;27;20043;-76
2022/07/18 05:07:53;;;;;;;9.27;4.22;;;;;;;14.01;81.54;93881.03;5133525;27;20078;-77
2022/07/18 05:10:22;;;;;;;7.63;4.05;;;;;;;14.07;80.59;93877.59;5132687;27;20108;-77
2022/07/18 05:12:52;;;;;;;8.45;3.67;;;;;;;14.21;78.77;93885.22;5132850;27;20142;-76
2022/07/18 05:15:20;;;;;;;9.38;4.47;;;;;;;14.33;79.78;93875.75;5132835;27;20039;-77
2022/07/18 05:17:47;;;;;;;10.35;4.15;;;;;;;14.34;73.80;93869.56;5132716;27;20043;-77
2022/07/18 05:20:16;;;;;;;17.50;7.38;;;;;;;14.36;73.08;93877.13;5132541;27;20043;-77
2022/07/18 05:22:45;;;;;;;12.35;5.95;;;;;;;14.50;76.78;93882.91;5132527;27;20088;-77
2022/07/18 05:25:12;;;;;;;17.88;7.50;;;;;;;14.59;75.72;93875.66;5132473;27;20075;-76
2022/07/18 05:27:40;;;;;;;17.92;7.80;;;;;;;14.73;75.95;93871.91;5132131;27;20039;-76
2022/07/18 05:30:09;;;;;;;20.85;9.40;;;;;;;14.67;74.53;93842.53;5132263;27;20088;-77
2022/07/18 05:32:36;;;;;;;17.67;7.40;;;;;;;15.08;72.91;93867.88;5125964;27;20051;-77
2022/07/18 05:35:03;;;;;;;18.75;8.05;;;;;;;15.22;73.10;93869.25;5113953;27;20494;-77
2022/07/18 05:37:30;;;;;;;18.75;8.85;;;;;;;15.44;74.83;93871.31;5131200;27;20047;-77
2022/07/18 05:39:58;;;;;;;20.33;9.38;;;;;;;15.64;69.35;93872.78;5132004;27;21685;-76
2022/07/18 05:42:25;;;;;;;20.10;9.07;;;;;;;15.71;67.58;93855.38;5132293;27;20043;-76
2022/07/18 05:44:52;;;;;;;26.88;9.65;;;;;;;16.00;65.93;93884.00;5131745;27;20092;-77
2022/07/18 05:47:18;;;;;;;20.00;9.77;;;;;;;16.14;67.80;93868.19;5131931;27;20038;-77
2022/07/18 05:49:45;;;;;;;19.60;9.18;;;;;;;16.35;68.12;93878.97;5131967;27;20055;-76
2022/07/18 05:52:12;;;;;;;21.73;9.38;;;;;;;16.60;66.89;93875.28;5131760;27;20039;-76
2022/07/18 05:54:39;;;;;;;27.23;11.07;;;;;;;16.79;64.91;93881.09;5131385;27;20468;-77
2022/07/18 05:57:07;;;;;;;29.15;13.43;;;;;;;16.96;64.11;93870.78;5131613;27;20047;-77
2022/07/18 05:59:34;;;;;;;26.65;11.20;;;;;;;17.04;62.25;93847.06;5131736;27;20035;-77
2022/07/18 06:02:01;;;;;;;25.80;9.88;;;;;;;17.28;60.92;93875.50;5131481;27;20134;-77
2022/07/18 06:04:28;;;;;;;20.10;9.02;;;;;;;17.54;60.03;93865.50;5131685;27;20500;-78
2022/07/18 06:06:54;;;;;;;24.92;9.23;;;;;;;17.88;60.85;93870.66;5131550;27;20043;-77
2022/07/18 06:09:21;;;;;;;21.00;7.03;;;;;;;18.23;59.92;93855.03;5131702;27;20055;-78
2022/07/18 06:11:48;;;;;;;27.23;9.63;;;;;;;18.72;57.49;93864.69;5131737;27;20043;-78
2022/07/18 06:14:16;;;;;;;19.17;6.78;;;;;;;18.20;55.65;93863.31;5131493;27;20051;-78
2022/07/18 06:16:42;;;;;;;18.45;7.13;;;;;;;18.48;56.73;93871.97;5131261;27;20047;-76
2022/07/18 06:19:09;;;;;;;13.57;6.10;;;;;;;18.47;53.16;93871.16;5131388;27;20548;-77
2022/07/18 06:21:36;;;;;;;19.15;5.90;;;;;;;19.01;54.42;93867.06;5131235;27;20051;-76
2022/07/18 06:24:03;;;;;;;13.90;5.85;;;;;;;19.28;51.11;93868.09;5131103;27;20539;-77
2022/07/18 06:26:30;;;;;;;15.45;5.65;;;;;;;19.48;52.79;93862.25;5130957;27;20043;-77
2022/07/18 06:28:57;;;;;;;17.23;6.65;;;;;;;19.75;52.78;93862.19;5131200;27;20055;-76
2022/07/18 06:31:25;;;;;;;13.55;6.03;;;;;;;20.00;49.17;93865.25;5131054;27;20047;-77
2022/07/18 06:33:52;;;;;;;20.23;5.45;;;;;;;20.22;50.26;93862.47;5131125;27;20096;-77
2022/07/18 06:36:23;;;;;;;13.70;5.68;;;;;;;20.13;48.12;93861.38;5130699;27;20092;-77
2022/07/18 06:38:50;;;;;;;10.70;5.05;;;;;;;20.74;48.47;93865.28;5131027;27;20050;-77
2022/07/18 06:41:16;;;;;;;13.20;5.05;;;;;;;20.89;46.66;93855.94;5130734;27;20104;-77
2022/07/18 06:43:43;;;;;;;12.90;5.00;;;;;;;21.54;46.75;93854.69;5130956;27;20039;-77
2022/07/18 06:46:10;;;;;;;12.60;3.85;;;;;;;21.66;43.80;93857.03;5131034;27;20043;-78
2022/07/18 06:48:38;;;;;;;9.15;4.38;;;;;;;22.03;44.05;93851.50;5130773;27;20042;-78
2022/07/18 06:51:06;;;;;;;10.90;3.72;;;;;;;21.95;43.24;93851.25;5130971;27;20783;-78
2022/07/18 06:53:33;;;;;;;8.23;4.15;;;;;;;21.94;43.22;93844.47;5130217;27;20095;-78
2022/07/18 06:56:02;;;;;;;5.72;2.22;;;;;;;22.06;40.90;93847.56;5130378;27;20058;-78
2022/07/18 06:58:30;;;;;;;6.15;2.60;;;;;;;22.63;40.35;93846.63;5130246;27;20058;-78
2022/07/18 07:00:57;;;;;;;4.03;1.80;;;;;;;22.81;39.39;93845.97;5130495;27;20165;-78
2022/07/18 07:03:24;;;;;;;4.85;2.13;;;;;;;23.55;38.19;93849.69;5130453;27;20096;-78
2022/07/18 07:05:52;;;;;;;2.88;1.15;;;;;;;22.83;36.81;93851.72;5130116;27;20495;-78
2022/07/18 07:08:19;;;;;;;6.72;1.40;;;;;;;23.01;36.99;93852.13;5130346;27;20127;-77
2022/07/18 07:10:45;;;;;;;8.38;1.50;;;;;;;22.68;36.32;93849.22;5130301;27;20161;-78
2022/07/18 07:13:12;;;;;;;3.97;1.20;;;;;;;23.33;36.60;93850.13;5130017;27;20051;-78
2022/07/18 07:15:40;;;;;;;4.85;1.38;;;;;;;23.68;36.29;93844.84;5130202;27;20047;-78
2022/07/18 07:18:07;;;;;;;2.60;0.80;;;;;;;23.46;35.04;93844.25;5130157;27;20082;-77
2022/07/18 07:20:35;;;;;;;2.45;1.10;;;;;;;23.40;37.33;93847.97;5130289;27;20043;-77
2022/07/18 07:23:07;;;;;;;3.40;1.20;;;;;;;23.39;34.42;93846.41;5130091;27;20039;-78
2022/07/18 07:25:33;;;;;;;1.95;0.80;;;;;;;23.31;33.94;93790.13;5130122;27;20445;-78
2022/07/18 07:28:00;;;;;;;1.55;0.75;;;;;;;21.95;34.82;93768.38;5129729;27;20059;-78
2022/07/18 07:30:27;;;;;;;5.35;0.80;;;;;;;22.72;35.73;93820.63;5130105;27;20047;-80
2022/07/18 07:32:54;;;;;;;1.83;0.52;;;;;;;22.61;35.57;93827.75;5129695;28;20069;-80
2022/07/18 07:35:22;;;;;;;2.30;0.88;;;;;;;22.41;35.21;93822.31;5129626;28;20039;-79
2022/07/18 07:37:51;;;;;;;1.98;0.75;;;;;;;22.20;36.16;93836.53;5129585;27;20047;-80
2022/07/18 07:40:21;;;;;;;1.73;0.70;;;;;;;22.52;36.24;93830.13;5129323;28;20035;-79
2022/07/18 07:42:48;;;;;;;1.73;0.77;;;;;;;22.84;37.07;93834.19;5129929;28;20051;-79
2022/07/18 07:45:17;;;;;;;3.50;1.02;;;;;;;22.39;35.76;93840.13;5129755;28;20047;-81
2022/07/18 07:47:44;;;;;;;4.35;1.45;;;;;;;22.35;34.75;93833.88;5116027;28;20043;-79
2022/07/18 07:50:13;;;;;;;3.88;0.95;;;;;;;22.34;35.24;93831.50;5128203;28;20490;-79
2022/07/18 07:52:40;;;;;;;0.90;0.50;;;;;;;21.91;32.54;93834.53;5112393;28;20039;-80
2022/07/18 07:55:07;;;;;;;2.63;0.57;;;;;;;21.75;33.64;93830.13;5128009;28;20062;-80
2022/07/18 07:57:36;;;;;;;3.58;0.95;;;;;;;21.80;35.36;93839.00;5129393;28;20043;-79
2022/07/18 08:00:06;;;;;;;2.92;0.57;;;;;;;22.20;34.97;93810.38;5129818;28;20051;-79
2022/07/18 08:02:33;;;;;;;1.90;0.55;;;;;;;22.45;32.89;93833.03;5129309;28;20039;-81
2022/07/18 08:05:00;;;;;;;1.85;0.55;;;;;;;22.46;33.30;93833.81;5129521;28;20046;-79
2022/07/18 08:07:27;;;;;;;2.05;0.75;;;;;;;22.60;33.58;93831.44;5129414;28;20092;-78
2022/07/18 08:09:53;;;;;;;1.50;0.63;;;;;;;22.45;31.84;93833.03;5129759;27;20039;-79
2022/07/18 08:12:20;;;;;;;1.50;0.60;;;;;;;22.39;31.47;93841.97;5132766;27;20051;-81
2022/07/18 08:14:49;;;;;;;1.65;0.50;;;;;;;22.54;33.28;93833.31;5133236;27;20551;-79
2022/07/18 08:17:16;;;;;;;2.00;0.77;;;;;;;22.55;33.06;93832.25;5133783;27;20045;-80
2022/07/18 08:19:43;;;;;;;1.20;0.50;;;;;;;22.86;30.06;93833.91;5133493;27;20444;-80
2022/07/18 08:22:10;;;;;;;2.05;0.70;;;;;;;22.74;32.08;93818.53;5133169;27;20506;-81
2022/07/18 08:24:36;;;;;;;5.88;0.95;;;;;;;22.72;30.91;93818.03;5133165;27;20402;-79
2022/07/18 08:27:03;;;;;;;1.35;0.50;;;;;;;22.54;29.91;93820.22;5133466;27;20043;-81
2022/07/18 08:29:33;;;;;;;2.20;0.88;;;;;;;22.47;29.53;93824.91;5133323;27;20088;-80
2022/07/18 08:32:01;;;;;;;1.30;0.50;;;;;;;22.18;30.34;93839.44;5118264;27;20043;-79
2022/07/18 08:34:30;;;;;;;1.23;0.60;;;;;;;22.23;30.29;93784.47;5129556;27;20055;-79
2022/07/18 08:36:57;;;;;;;1.60;0.55;;;;;;;22.32;28.19;93817.91;5118586;27;20047;-80
2022/07/18 08:39:26;;;;;;;2.78;0.47;;;;;;;22.53;28.88;93824.66;5123910;27;20059;-81
2022/07/18 08:41:55;;;;;;;2.03;0.70;;;;;;;22.46;30.66;93766.56;5112106;28;20052;-79
2022/07/18 08:44:22;;;;;;;1.55;0.63;;;;;;;22.73;29.97;93782.91;5112219;28;20403;-79
2022/07/18 08:46:51;;;;;;;1.60;0.60;;;;;;;22.75;29.24;93830.56;5111905;28;20511;-80
2022/07/18 08:49:20;;;;;;;1.45;0.60;;;;;;;22.27;31.66;93834.44;5111277;28;20135;-79
2022/07/18 08:51:47;;;;;;;3.10;0.60;;;;;;;22.42;31.86;93836.19;5124198;27;20465;-79
2022/07/18 08:54:14;;;;;;;3.08;1.13;;;;;;;22.48;33.52;93836.94;5132218;27;20051;-79
2022/07/18 08:56:40;;;;;;;1.65;0.73;;;;;;;22.59;33.24;93828.00;5132397;27;20050;-79
2022/07/18 08:59:07;;;;;;;1.20;0.50;;;;;;;22.68;31.18;93829.03;5132932;27;20047;-79
2022/07/18 09:01:34;;;;;;;4.15;0.60;;;;;;;22.83;30.29;93841.25;5132798;27;20424;-79
2022/07/18 09:04:17;;;;;;;3.20;0.95;;;;;;;22.81;31.81;93829.47;5132591;27;20084;-80
2022/07/18 09:06:46;;;;;;;5.57;0.82;;;;;;;22.99;29.43;93833.28;5130580;27;20053;-81
2022/07/18 09:09:14;;;;;;;1.70;0.60;;;;;;;23.07;31.43;93819.63;5132907;27;20100;-80
2022/07/18 09:11:52;;;;;;;2.40;0.70;;;;;;;22.98;30.79;93815.22;5132956;27;20051;-79
2022/07/18 09:14:31;;;;;;;3.72;0.68;;;;;;;23.23;32.12;93822.91;5132535;27;20137;-79
2022/07/18 09:17:07;;;;;;;1.67;0.63;;;;;;;23.34;30.99;93815.00;5132499;27;20043;-79
2022/07/18 09:19:34;;;;;;;1.60;0.70;;;;;;;22.58;30.95;93784.56;5132613;27;20155;-81
2022/07/18 09:22:17;;;;;;;1.48;0.55;;;;;;;23.15;31.56;93827.97;5131861;27;20035;-79
2022/07/18 09:24:56;;;;;;;1.73;0.70;;;;;;;23.61;32.08;93824.97;5132084;27;20047;-79
2022/07/18 09:27:25;;;;;;;1.65;0.60;;;;;;;23.12;30.63;93820.63;5132490;27;20039;-80
2022/07/18 09:30:12;;;;;;;2.15;0.70;;;;;;;23.14;32.72;93818.53;5127641;27;20461;-79
2022/07/18 09:32:40;;;;;;;1.73;0.85;;;;;;;23.25;31.68;93809.53;5130395;27;20518;-81
2022/07/18 09:35:13;;;;;;;3.35;0.68;;;;;;;22.78;30.84;93796.75;5132094;27;20043;-81
2022/07/18 09:37:52;;;;;;;1.25;0.60;;;;;;;23.46;30.81;93820.66;5131650;27;20039;-81
2022/07/18 09:40:22;;;;;;;1.33;0.50;;;;;;;24.02;31.36;93817.75;5131650;27;20126;-81
2022/07/18 09:42:51;;;;;;;3.22;0.77;;;;;;;23.70;30.66;93819.16;5132001;27;20438;-81
2022/07/18 09:45:23;;;;;;;2.53;0.75;;;;;;;23.46;31.08;93818.03;5131647;27;20061;-82
2022/07/18 09:47:52;;;;;;;1.80;0.70;;;;;;;23.78;31.71;93810.66;5131991;27;20053;-79
2022/07/18 09:50:24;;;;;;;1.67;0.82;;;;;;;23.61;32.26;93805.84;5131469;27;20487;-82
2022/07/18 09:53:01;;;;;;;1.63;0.80;;;;;;;23.66;32.57;93807.63;5116239;27;20058;-79
2022/07/18 09:55:29;;;;;;;1.48;0.60;;;;;;;23.33;33.36;93798.47;5131520;27;20055;-81
2022/07/18 09:58:02;;;;;;;2.33;0.88;;;;;;;23.96;34.08;93811.78;5131586;27;20135;-81
2022/07/18 10:00:31;;;;;;;3.58;0.90;;;;;;;23.68;31.37;93745.97;5131701;27;20122;-80
2022/07/18 10:03:00;;;;;;;3.03;0.90;;;;;;;23.89;32.91;93811.34;5131269;27;20054;-81
2022/07/18 10:05:32;;;;;;;1.98;0.82;;;;;;;24.46;33.50;93813.34;5131653;27;20509;-81
2022/07/18 10:08:05;;;;;;;4.50;1.00;;;;;;;24.33;33.49;93800.88;5129643;27;20497;-81
2022/07/18 10:10:32;;;;;;;3.08;0.98;;;;;;;23.83;33.45;93809.84;5131499;27;20039;-81
2022/07/18 10:13:01;;;;;;;2.05;0.80;;;;;;;24.23;33.03;93765.06;5127774;27;20511;-84
2022/07/18 10:15:30;;;;;;;3.38;1.00;;;;;;;24.38;32.81;93791.13;5110349;28;20051;-82
2022/07/18 10:18:00;;;;;;;3.05;1.00;;;;;;;24.20;32.72;93768.25;5110237;28;20044;-82
2022/07/18 10:20:31;;;;;;;2.30;1.00;;;;;;;24.36;33.21;93767.00;5110255;27;20123;-81
2022/07/18 10:23:03;;;;;;;2.85;1.02;;;;;;;24.56;33.88;93775.66;5110360;28;20081;-84
2022/07/18 10:25:31;;;;;;;1.92;1.13;;;;;;;24.02;33.43;93794.94;5110784;28;20048;-83
2022/07/18 10:28:09;;;;;;;2.28;1.13;;;;;;;24.64;34.38;93790.78;5110417;28;20100;-83
2022/07/18 10:30:44;;;;;;;3.97;1.08;;;;;;;24.68;34.61;93785.75;5123937;27;20510;-83
2022/07/18 10:33:40;;;;;;;1.85;0.88;;;;;;;24.72;33.75;93781.50;5116844;27;20047;-83
2022/07/18 10:36:09;;;;;;;2.65;1.00;;;;;;;24.58;33.72;93778.00;5130926;27;20043;-82
2022/07/18 10:38:38;;;;;;;3.78;1.52;;;;;;;24.78;33.59;93780.34;5130888;27;20043;-81
2022/07/18 10:41:07;;;;;;;3.05;1.20;;;;;;;24.92;32.61;93779.66;5129455;27;20103;-82
2022/07/18 10:43:38;;;;;;;2.35;0.85;;;;;;;24.99;32.96;93761.66;5118652;27;20388;-81
2022/07/18 10:46:08;;;;;;;2.70;0.98;;;;;;;24.77;33.20;93764.88;5130778;27;20490;-82
2022/07/18 10:48:57;;;;;;;2.92;1.05;;;;;;;25.05;32.05;93767.63;5131390;27;20051;-82
2022/07/18 10:51:33;;;;;;;4.93;1.00;;;;;;;24.62;33.44;93774.50;5128471;27;20447;-82
2022/07/18 10:54:09;;;;;;;2.75;0.88;;;;;;;24.99;32.88;93771.41;5130823;27;20051;-81
2022/07/18 10:57:11;;;;;;;2.65;0.80;;;;;;;25.21;32.47;93768.94;5130396;27;20047;-82
2022/07/18 10:59:59;;;;;;;2.78;1.20;;;;;;;24.63;32.99;93756.94;5130427;27;20047;-82
2022/07/18 11:02:32;;;;;;;3.95;1.00;;;;;;;24.59;33.69;93758.56;5130509;27;20135;-82
2022/07/18 11:04:59;;;;;;;5.35;1.30;;;;;;;25.32;34.14;93742.47;5130298;27;20443;-81
2022/07/18 11:07:26;;;;;;;2.60;1.02;;;;;;;25.04;33.21;93737.16;5130300;27;20043;-83
2022/07/18 11:09:54;;;;;;;2.92;1.17;;;;;;;25.14;32.77;93755.41;5130301;27;20073;-82
2022/07/18 11:12:29;;;;;;;4.15;1.60;;;;;;;24.82;32.45;93736.69;5129211;27;20043;-84
2022/07/18 11:15:06;;;;;;;3.42;1.80;;;;;;;24.92;32.18;93732.34;5121510;27;20106;-83
2022/07/18 11:17:55;;;;;;;5.20;1.25;;;;;;;25.17;33.40;93752.19;5126240;27;21089;-83
2022/07/18 11:20:31;;;;;;;3.60;1.40;;;;;;;25.14;33.60;93750.16;5127985;27;20388;-85
2022/07/18 11:22:58;;;;;;;3.63;1.10;;;;;;;25.41;33.69;93761.00;5127520;27;20047;-86
2022/07/18 11:25:30;;;;;;;3.42;1.30;;;;;;;25.04;33.70;93703.75;5129436;27;20035;-83
2022/07/18 11:27:57;;;;;;;5.68;1.65;;;;;;;25.65;33.14;93757.44;5129204;27;20583;-83
2022/07/18 11:30:25;;;;;;;4.35;1.35;;;;;;;25.40;33.64;93757.59;5129906;27;20043;-84
2022/07/18 11:32:53;;;;;;;3.45;1.38;;;;;;;25.26;31.85;93735.75;5129446;28;20054;-83
2022/07/18 11:35:25;;;;;;;2.00;1.10;;;;;;;25.29;32.25;93759.63;5129616;28;20043;-82
2022/07/18 11:37:55;;;;;;;4.68;1.30;;;;;;;25.49;33.80;93747.97;5126485;27;20067;-81
2022/07/18 11:40:22;;;;;;;5.63;1.15;;;;;;;25.65;33.29;93755.59;5129240;28;20043;-81